createdAt,value
2019-05-25T00:00:32.653Z,3.05
2019-05-25T00:03:05.063Z,2.87
2019-05-25T00:05:37.313Z,2.92
2019-05-25T00:08:09.626Z,3.00
2019-05-25T00:10:41.863Z,2.72
2019-05-25T00:13:14.912Z,2.87
2019-05-25T00:15:47.117Z,2.67
2019-05-25T00:18:20.188Z,2.70
2019-05-25T00:20:52.672Z,2.90
2019-05-25T00:23:24.910Z,2.95
2019-05-25T00:25:57.300Z,3.00
2019-05-25T00:28:29.611Z,2.98
2019-05-25T00:31:01.812Z,3.20
2019-05-25T00:33:34.430Z,2.67
2019-05-25T00:36:06.834Z,3.12
2019-05-25T00:38:39.295Z,2.75
2019-05-25T00:41:11.565Z,3.40
2019-05-25T00:43:44.491Z,3.20
2019-05-25T00:46:17.260Z,3.20
2019-05-25T00:48:49.566Z,3.30
2019-05-25T00:51:21.778Z,3.22
2019-05-25T00:53:53.991Z,3.02
2019-05-25T00:56:26.606Z,3.12
2019-05-25T00:58:58.904Z,3.10
2019-05-25T01:01:31.435Z,3.17
2019-05-25T01:04:03.709Z,2.98
2019-05-25T01:06:35.933Z,3.00
2019-05-25T01:09:08.697Z,3.00
2019-05-25T01:11:41.173Z,3.37
2019-05-25T01:14:13.347Z,3.50
2019-05-25T01:16:45.569Z,3.35
2019-05-25T01:19:18.031Z,3.37
2019-05-25T01:21:50.203Z,3.10
2019-05-25T01:24:22.384Z,3.75
2019-05-25T01:26:54.924Z,3.05
2019-05-25T01:29:27.124Z,3.15
2019-05-25T01:32:00.024Z,3.12
2019-05-25T01:34:32.141Z,3.50
2019-05-25T01:37:04.349Z,3.65
2019-05-25T01:39:36.514Z,3.47
2019-05-25T01:42:08.862Z,3.58
2019-05-25T01:44:41.114Z,3.75
2019-05-25T01:47:13.266Z,3.40
2019-05-25T01:49:45.804Z,3.62
2019-05-25T01:52:18.225Z,3.62
2019-05-25T01:54:59.509Z,3.30
2019-05-25T01:57:25.523Z,3.55
2019-05-25T01:59:57.672Z,3.42
2019-05-25T02:02:30.305Z,3.65
2019-05-25T02:05:02.513Z,3.42
2019-05-25T02:07:35.777Z,3.70
2019-05-25T02:10:08.875Z,3.70
2019-05-25T02:12:41.354Z,3.42
2019-05-25T02:15:14.319Z,3.70
2019-05-25T02:17:46.464Z,3.83
2019-05-25T02:20:19.221Z,3.80
2019-05-25T02:22:51.538Z,3.92
2019-05-25T02:25:23.847Z,3.22
2019-05-25T02:27:56.353Z,3.45
2019-05-25T02:30:29.193Z,3.42
2019-05-25T02:33:01.531Z,3.30
2019-05-25T02:35:34.077Z,2.90
2019-05-25T02:38:06.353Z,2.75
2019-05-25T02:40:38.575Z,3.30
2019-05-25T02:43:11.148Z,3.05
2019-05-25T02:45:43.652Z,2.80
2019-05-25T02:48:16.091Z,2.90
2019-05-25T02:50:48.441Z,3.10
2019-05-25T02:53:22.147Z,3.25
2019-05-25T02:55:54.642Z,3.00
2019-05-25T02:58:26.883Z,3.33
2019-05-25T03:00:59.492Z,2.95
2019-05-25T03:03:31.820Z,3.00
2019-05-25T03:06:06.422Z,3.60
2019-05-25T03:08:40.432Z,3.00
2019-05-25T03:11:13.830Z,3.00
2019-05-25T03:13:46.236Z,3.17
2019-05-25T03:16:18.485Z,2.95
2019-05-25T03:18:50.684Z,3.27
2019-05-25T03:21:23.027Z,2.92
2019-05-25T03:23:55.342Z,2.87
2019-05-25T03:26:27.687Z,2.90
2019-05-25T03:29:00.071Z,2.65
2019-05-25T03:31:32.384Z,3.12
2019-05-25T03:34:04.932Z,2.65
2019-05-25T03:36:37.101Z,2.90
2019-05-25T03:39:09.776Z,2.67
2019-05-25T03:41:41.994Z,2.77
2019-05-25T03:44:14.267Z,3.58
2019-05-25T03:46:46.480Z,3.65
2019-05-25T03:49:18.685Z,3.20
2019-05-25T03:51:51.038Z,3.35
2019-05-25T03:54:23.448Z,3.33
2019-05-25T03:56:55.569Z,3.10
2019-05-25T03:59:28.434Z,3.47
2019-05-25T04:02:00.669Z,3.30
2019-05-25T04:04:32.808Z,3.72
2019-05-25T04:07:05.088Z,3.40
2019-05-25T04:09:37.336Z,3.25
2019-05-25T04:12:10.480Z,3.30
2019-05-25T04:14:42.998Z,3.60
2019-05-25T04:17:15.614Z,3.12
2019-05-25T04:19:47.961Z,3.55
2019-05-25T04:22:20.490Z,3.62
2019-05-25T04:24:52.713Z,3.02
2019-05-25T04:27:25.196Z,3.17
2019-05-25T04:29:57.483Z,3.60
2019-05-25T04:32:29.685Z,3.30
2019-05-25T04:35:01.925Z,3.27
2019-05-25T04:37:34.151Z,3.37
2019-05-25T04:40:06.851Z,3.12
2019-05-25T04:42:39.235Z,3.55
2019-05-25T04:45:13.350Z,3.50
2019-05-25T04:47:45.509Z,3.20
2019-05-25T04:50:18.125Z,3.37
2019-05-25T04:52:50.483Z,3.08
2019-05-25T04:55:22.736Z,3.10
2019-05-25T04:57:55.955Z,3.47
2019-05-25T05:00:28.739Z,3.37
2019-05-25T05:03:01.020Z,2.90
2019-05-25T05:05:33.368Z,3.02
2019-05-25T05:08:05.661Z,2.98
2019-05-25T05:10:37.911Z,2.85
2019-05-25T05:13:10.452Z,2.98
2019-05-25T05:15:42.748Z,3.10
2019-05-25T05:18:15.056Z,2.90
2019-05-25T05:20:47.335Z,2.87
2019-05-25T05:23:20.875Z,2.77
2019-05-25T05:25:53.860Z,3.00
2019-05-25T05:28:26.250Z,2.87
2019-05-25T05:30:58.529Z,3.62
2019-05-25T05:33:30.715Z,2.83
2019-05-25T05:36:04.558Z,2.72
2019-05-25T05:38:37.486Z,2.77
2019-05-25T05:41:12.296Z,2.70
2019-05-25T05:43:47.664Z,2.70
2019-05-25T05:46:21.672Z,2.67
2019-05-25T05:48:55.471Z,2.47
2019-05-25T05:51:30.028Z,2.58
2019-05-25T05:54:04.797Z,2.72
2019-05-25T05:56:37.212Z,2.40
2019-05-25T05:59:09.381Z,2.50
2019-05-25T06:01:41.558Z,2.52
2019-05-25T06:04:13.794Z,2.55
2019-05-25T06:06:46.055Z,2.47
2019-05-25T06:09:18.577Z,2.52
2019-05-25T06:11:50.875Z,2.20
2019-05-25T06:14:23.246Z,2.30
2019-05-25T06:16:56.077Z,2.60
2019-05-25T06:19:28.637Z,2.20
2019-05-25T06:22:01.231Z,2.20
2019-05-25T06:24:33.431Z,2.40
2019-05-25T06:27:05.775Z,2.30
2019-05-25T06:29:38.077Z,2.33
2019-05-25T06:32:10.703Z,2.17
2019-05-25T06:34:42.915Z,2.22
2019-05-25T06:37:15.183Z,2.50
2019-05-25T06:39:47.341Z,2.25
2019-05-25T06:42:19.564Z,1.82
2019-05-25T06:44:51.814Z,2.25
2019-05-25T06:47:24.521Z,2.12
2019-05-25T06:49:56.924Z,2.05
2019-05-25T06:52:29.316Z,2.22
2019-05-25T06:55:01.793Z,1.95
2019-05-25T06:57:43.131Z,2.45
2019-05-25T07:00:09.896Z,2.35
2019-05-25T07:02:42.534Z,2.87
2019-05-25T07:05:15.771Z,2.80
2019-05-25T07:07:48.087Z,2.42
2019-05-25T07:10:22.335Z,2.65
2019-05-25T07:12:54.793Z,2.65
2019-05-25T07:15:28.095Z,2.45
2019-05-25T07:18:01.448Z,2.62
2019-05-25T07:20:54.374Z,2.60
2019-05-25T07:23:28.926Z,2.70
2019-05-25T07:26:01.554Z,2.33
2019-05-25T07:28:34.004Z,3.10
2019-05-25T07:31:06.845Z,2.90
2019-05-25T07:33:39.429Z,2.90
2019-05-25T07:36:11.633Z,2.92
2019-05-25T07:38:43.925Z,3.05
2019-05-25T07:41:16.530Z,2.95
2019-05-25T07:43:49.058Z,3.12
2019-05-25T07:46:21.363Z,3.47
2019-05-25T07:48:53.956Z,3.02
2019-05-25T07:51:26.245Z,3.35
2019-05-25T07:53:58.530Z,3.15
2019-05-25T07:56:30.824Z,3.20
2019-05-25T07:59:03.126Z,3.40
2019-05-25T08:01:35.367Z,3.20
2019-05-25T08:04:07.780Z,3.52
2019-05-25T08:06:40.157Z,3.42
2019-05-25T08:09:13.342Z,3.42
2019-05-25T08:11:46.099Z,3.50
2019-05-25T08:14:19.789Z,3.72
2019-05-25T08:16:52.434Z,4.55
2019-05-25T08:19:25.938Z,4.67
2019-05-25T08:21:58.258Z,4.10
2019-05-25T08:24:30.940Z,4.30
2019-05-25T08:27:03.467Z,4.50
2019-05-25T08:29:35.988Z,3.87
2019-05-25T08:32:08.687Z,4.67
2019-05-25T08:34:41.374Z,4.55
2019-05-25T08:37:13.859Z,4.70
2019-05-25T08:39:46.728Z,5.12
2019-05-25T08:42:19.545Z,5.15
2019-05-25T08:44:52.110Z,5.20
2019-05-25T08:47:24.383Z,4.67
2019-05-25T08:49:56.806Z,4.97
2019-05-25T08:52:28.991Z,5.00
2019-05-25T08:55:01.689Z,4.90
2019-05-25T08:57:34.451Z,5.10
2019-05-25T09:00:08.726Z,4.80
2019-05-25T09:02:40.979Z,4.50
2019-05-25T09:05:13.411Z,4.92
2019-05-25T09:07:45.791Z,4.97
2019-05-25T09:10:19.492Z,4.20
2019-05-25T09:12:51.863Z,4.15
2019-05-25T09:15:24.284Z,3.85
2019-05-25T09:17:56.689Z,4.17
2019-05-25T09:20:28.986Z,3.77
2019-05-25T09:23:01.167Z,3.60
2019-05-25T09:25:34.128Z,3.85
2019-05-25T09:28:06.657Z,3.50
2019-05-25T09:30:39.155Z,3.17
2019-05-25T09:33:11.558Z,3.47
2019-05-25T09:35:43.929Z,3.15
2019-05-25T09:38:16.101Z,3.42
2019-05-25T09:40:48.751Z,3.08
2019-05-25T09:43:21.293Z,3.10
2019-05-25T09:45:53.798Z,3.33
2019-05-25T09:48:26.232Z,3.83
2019-05-25T09:50:58.462Z,3.52
2019-05-25T09:53:31.139Z,3.58
2019-05-25T09:56:03.639Z,3.50
2019-05-25T09:58:37.047Z,3.27
2019-05-25T10:01:09.906Z,3.72
2019-05-25T10:03:42.664Z,2.67
2019-05-25T10:06:15.256Z,3.15
2019-05-25T10:08:47.563Z,3.10
2019-05-25T10:11:20.093Z,3.27
2019-05-25T10:13:52.596Z,3.10
2019-05-25T10:16:25.289Z,2.87
2019-05-25T10:18:57.979Z,2.98
2019-05-25T10:21:30.266Z,3.25
2019-05-25T10:24:02.718Z,2.75
2019-05-25T10:26:35.264Z,3.20
2019-05-25T10:29:08.090Z,3.52
2019-05-25T10:31:40.417Z,2.90
2019-05-25T10:34:12.951Z,3.52
2019-05-25T10:36:46.642Z,2.70
2019-05-25T10:39:18.940Z,3.20
2019-05-25T10:41:51.782Z,2.90
2019-05-25T10:44:24.099Z,2.95
2019-05-25T10:46:56.297Z,3.67
2019-05-25T10:49:28.826Z,3.08
2019-05-25T10:52:01.314Z,3.02
2019-05-25T10:54:33.676Z,3.25
2019-05-25T10:57:06.757Z,3.80
2019-05-25T10:59:51.925Z,3.27
2019-05-25T11:02:14.054Z,3.30
2019-05-25T11:04:46.572Z,3.02
2019-05-25T11:07:19.354Z,3.30
2019-05-25T11:09:51.764Z,3.00
2019-05-25T11:12:26.087Z,3.20
2019-05-25T11:14:58.496Z,2.95
2019-05-25T11:17:31.211Z,3.50
2019-05-25T11:20:03.583Z,3.08
2019-05-25T11:22:36.027Z,3.08
2019-05-25T11:25:09.741Z,3.30
2019-05-25T11:27:42.134Z,3.08
2019-05-25T11:30:15.827Z,3.20
2019-05-25T11:32:48.601Z,3.20
2019-05-25T11:35:21.130Z,3.65
2019-05-25T11:37:53.859Z,3.65
2019-05-25T11:40:26.563Z,3.77
2019-05-25T11:42:59.292Z,3.30
2019-05-25T11:45:31.818Z,3.25
2019-05-25T11:48:04.628Z,3.52
2019-05-25T11:50:37.238Z,3.22
2019-05-25T11:53:10.157Z,3.58
2019-05-25T11:55:43.150Z,3.70
2019-05-25T11:58:15.653Z,3.85
2019-05-25T12:00:47.965Z,3.67
2019-05-25T12:03:20.249Z,3.60
2019-05-25T12:05:52.618Z,3.40
2019-05-25T12:08:25.416Z,3.50
2019-05-25T12:10:58.080Z,3.42
2019-05-25T12:13:32.213Z,3.70
2019-05-25T12:16:04.398Z,3.92
2019-05-25T12:18:36.669Z,3.62
2019-05-25T12:21:09.234Z,3.58
2019-05-25T12:23:42.773Z,2.98
2019-05-25T12:26:15.928Z,3.30
2019-05-25T12:28:48.490Z,2.85
2019-05-25T12:31:20.949Z,3.00
2019-05-25T12:33:53.433Z,3.12
2019-05-25T12:36:25.906Z,3.20
2019-05-25T12:38:58.109Z,2.95
2019-05-25T12:41:30.418Z,2.70
2019-05-25T12:44:02.845Z,2.83
2019-05-25T12:46:35.184Z,2.58
2019-05-25T12:49:07.777Z,2.80
2019-05-25T12:51:47.730Z,2.60
2019-05-25T12:54:19.970Z,2.90
2019-05-25T12:56:52.163Z,3.33
2019-05-25T12:59:24.471Z,2.80
2019-05-25T13:01:56.788Z,4.72
2019-05-25T13:04:29.018Z,3.17
2019-05-25T13:07:01.575Z,2.65
2019-05-25T13:09:33.749Z,2.80
2019-05-25T13:12:06.281Z,2.85
2019-05-25T13:14:38.587Z,2.60
2019-05-25T13:17:10.855Z,2.77
2019-05-25T13:19:43.022Z,2.30
2019-05-25T13:22:15.542Z,2.50
2019-05-25T13:24:47.714Z,2.25
2019-05-25T13:27:20.332Z,2.33
2019-05-25T13:29:53.530Z,2.80
2019-05-25T13:32:25.699Z,2.70
2019-05-25T13:34:57.878Z,2.60
2019-05-25T13:37:30.054Z,2.55
2019-05-25T13:40:02.278Z,2.55
2019-05-25T13:42:35.211Z,2.58
2019-05-25T13:45:08.567Z,2.20
2019-05-25T13:47:41.845Z,2.52
2019-05-25T13:50:14.291Z,2.10
2019-05-25T13:52:46.555Z,2.30
2019-05-25T13:55:18.917Z,2.47
2019-05-25T13:57:51.454Z,2.12
2019-05-25T14:00:23.796Z,2.37
2019-05-25T14:02:56.362Z,1.90
2019-05-25T14:05:28.789Z,2.37
2019-05-25T14:08:02.545Z,2.30
2019-05-25T14:10:34.718Z,2.40
2019-05-25T14:13:06.888Z,2.70
2019-05-25T14:15:39.294Z,2.27
2019-05-25T14:18:11.474Z,2.40
2019-05-25T14:20:48.864Z,2.15
2019-05-25T14:23:21.008Z,2.25
2019-05-25T14:25:53.353Z,2.47
2019-05-25T14:28:25.639Z,2.58
2019-05-25T14:30:58.964Z,2.30
2019-05-25T14:33:32.603Z,2.33
2019-05-25T14:36:06.836Z,2.25
2019-05-25T14:38:38.976Z,2.00
2019-05-25T14:41:11.688Z,2.10
2019-05-25T14:43:44.175Z,1.90
2019-05-25T14:46:27.323Z,2.10
2019-05-25T14:48:50.266Z,2.00
2019-05-25T14:51:22.718Z,1.87
2019-05-25T14:53:54.970Z,2.30
2019-05-25T14:56:27.540Z,2.10
2019-05-25T14:58:59.772Z,2.20
2019-05-25T15:01:31.994Z,2.10
2019-05-25T15:04:04.380Z,2.37
2019-05-25T15:06:37.070Z,2.40
2019-05-25T15:09:09.503Z,2.42
2019-05-25T15:11:42.339Z,2.25
2019-05-25T15:14:14.493Z,2.20
2019-05-25T15:16:46.812Z,2.30
2019-05-25T15:19:19.493Z,2.00
2019-05-25T15:21:52.973Z,2.12
2019-05-25T15:24:25.439Z,2.12
2019-05-25T15:26:58.006Z,2.55
2019-05-25T15:29:30.578Z,2.00
2019-05-25T15:32:18.892Z,2.10
2019-05-25T15:34:37.321Z,2.58
2019-05-25T15:37:09.557Z,2.22
2019-05-25T15:39:41.786Z,2.10
2019-05-25T15:42:14.027Z,2.30
2019-05-25T15:44:46.228Z,1.87
2019-05-25T15:47:18.669Z,1.90
2019-05-25T15:49:51.345Z,1.98
2019-05-25T15:52:23.696Z,2.22
2019-05-25T15:54:56.039Z,2.22
2019-05-25T15:57:29.995Z,2.42
2019-05-25T16:00:04.336Z,1.95
2019-05-25T16:02:37.219Z,2.30
2019-05-25T16:05:11.269Z,2.02
2019-05-25T16:07:47.629Z,2.25
2019-05-25T16:10:19.981Z,1.90
2019-05-25T16:12:53.349Z,2.05
2019-05-25T16:15:29.468Z,2.12
2019-05-25T16:18:01.755Z,2.00
2019-05-25T16:20:34.065Z,2.02
2019-05-25T16:23:06.399Z,2.40
2019-05-25T16:25:38.998Z,2.40
2019-05-25T16:28:13.279Z,2.50
2019-05-25T16:30:45.438Z,2.47
2019-05-25T16:33:17.703Z,2.60
2019-05-25T16:35:50.175Z,3.00
2019-05-25T16:38:22.320Z,2.60
2019-05-25T16:40:54.865Z,2.45
2019-05-25T16:43:27.086Z,2.40
2019-05-25T16:45:59.355Z,2.42
2019-05-25T16:48:31.876Z,2.33
2019-05-25T16:51:04.217Z,2.20
2019-05-25T16:53:36.442Z,2.62
2019-05-25T16:56:08.940Z,2.30
2019-05-25T16:58:41.127Z,2.52
2019-05-25T17:01:17.745Z,2.20
2019-05-25T17:03:48.368Z,2.50
2019-05-25T17:06:20.613Z,2.20
2019-05-25T17:08:56.208Z,2.17
2019-05-25T17:11:27.235Z,2.65
2019-05-25T17:13:59.721Z,2.25
2019-05-25T17:16:32.020Z,2.80
2019-05-25T17:19:04.286Z,2.55
2019-05-25T17:21:36.451Z,2.75
2019-05-25T17:24:10.091Z,6.08
2019-05-25T17:26:42.285Z,13.58
2019-05-25T17:29:14.899Z,5.83
2019-05-25T17:31:47.108Z,2.80
2019-05-25T17:34:19.854Z,2.70
2019-05-25T17:36:55.521Z,6.00
2019-05-25T17:39:28.278Z,4.90
2019-05-25T17:42:03.884Z,5.40
2019-05-25T17:44:36.245Z,3.10
2019-05-25T17:47:08.543Z,3.77
2019-05-25T17:49:41.346Z,3.65
2019-05-25T17:52:13.764Z,3.50
2019-05-25T17:54:46.248Z,2.92
2019-05-25T17:57:18.927Z,2.87
2019-05-25T17:59:54.459Z,3.37
2019-05-25T18:02:27.037Z,7.10
2019-05-25T18:04:59.694Z,3.25
2019-05-25T18:07:32.184Z,2.60
2019-05-25T18:10:05.604Z,6.80
2019-05-25T18:12:38.782Z,3.00
2019-05-25T18:15:12.091Z,2.58
2019-05-25T18:17:44.716Z,3.00
2019-05-25T18:20:19.698Z,5.33
2019-05-25T18:22:52.259Z,3.95
2019-05-25T18:25:24.995Z,4.42
2019-05-25T18:27:57.675Z,3.92
2019-05-25T18:30:31.070Z,2.75
2019-05-25T18:33:03.996Z,5.05
2019-05-25T18:35:36.632Z,6.87
2019-05-25T18:38:09.201Z,2.92
2019-05-25T18:40:41.849Z,3.62
2019-05-25T18:43:17.731Z,3.58
2019-05-25T18:45:50.292Z,4.50
2019-05-25T18:48:24.896Z,3.67
2019-05-25T18:50:57.725Z,3.92
2019-05-25T18:53:30.411Z,3.92
2019-05-25T18:56:03.080Z,5.40
2019-05-25T18:58:35.454Z,9.85
2019-05-25T19:01:08.255Z,3.77
2019-05-25T19:03:40.948Z,3.37
2019-05-25T19:06:13.363Z,2.62
2019-05-25T19:08:45.654Z,3.12
2019-05-25T19:11:18.689Z,3.15
2019-05-25T19:13:50.949Z,3.47
2019-05-25T19:16:23.293Z,3.20
2019-05-25T19:18:55.524Z,3.33
2019-05-25T19:21:28.176Z,3.22
2019-05-25T19:24:00.652Z,3.10
2019-05-25T19:26:33.030Z,3.33
2019-05-25T19:29:06.380Z,3.33
2019-05-25T19:31:38.536Z,3.50
2019-05-25T19:34:11.110Z,3.37
2019-05-25T19:36:43.412Z,3.87
2019-05-25T19:39:15.908Z,3.87
2019-05-25T19:41:48.201Z,3.77
2019-05-25T19:44:20.734Z,3.85
2019-05-25T19:46:53.356Z,3.70
2019-05-25T19:49:25.938Z,4.17
2019-05-25T19:52:00.253Z,6.35
2019-05-25T19:54:33.054Z,6.92
2019-05-25T19:57:05.828Z,7.75
2019-05-25T19:59:38.277Z,8.08
2019-05-25T20:02:10.691Z,8.48
2019-05-25T20:04:42.985Z,9.53
2019-05-25T20:07:15.479Z,15.70
2019-05-25T20:09:48.202Z,21.12
2019-05-25T20:12:20.582Z,20.80
2019-05-25T20:14:53.334Z,20.75
2019-05-25T20:17:26.050Z,19.25
2019-05-25T20:19:59.613Z,16.55
2019-05-25T20:22:32.039Z,14.47
2019-05-25T20:25:05.157Z,13.28
2019-05-25T20:27:38.207Z,12.58
2019-05-25T20:30:11.270Z,10.50
2019-05-25T20:32:44.479Z,12.20
2019-05-25T20:35:31.930Z,11.30
2019-05-25T20:37:52.644Z,9.75
2019-05-25T20:40:25.052Z,8.65
2019-05-25T20:42:57.422Z,10.82
2019-05-25T20:45:30.023Z,11.22
2019-05-25T20:48:02.738Z,9.75
2019-05-25T20:50:35.464Z,9.88
2019-05-25T20:53:08.036Z,8.98
2019-05-25T20:55:40.511Z,9.20
2019-05-25T20:58:13.245Z,9.03
2019-05-25T21:00:45.573Z,8.40
2019-05-25T21:03:18.104Z,8.10
2019-05-25T21:05:51.102Z,7.80
2019-05-25T21:08:23.543Z,7.33
2019-05-25T21:10:56.260Z,6.30
2019-05-25T21:13:28.802Z,5.70
2019-05-25T21:16:02.079Z,4.97
2019-05-25T21:18:34.843Z,5.22
2019-05-25T21:21:07.117Z,5.45
2019-05-25T21:23:39.393Z,4.67
2019-05-25T21:26:11.636Z,5.03
2019-05-25T21:28:43.831Z,5.08
2019-05-25T21:31:16.085Z,5.20
2019-05-25T21:33:48.649Z,5.20
2019-05-25T21:36:21.007Z,5.40
2019-05-25T21:38:53.224Z,5.67
2019-05-25T21:41:25.858Z,5.85
2019-05-25T21:43:57.998Z,5.45
2019-05-25T21:46:30.432Z,5.67
2019-05-25T21:49:03.009Z,5.70
2019-05-25T21:51:35.148Z,5.50
2019-05-25T21:54:07.571Z,5.28
2019-05-25T21:56:40.688Z,5.78
2019-05-25T21:59:13.942Z,5.15
2019-05-25T22:01:47.247Z,5.12
2019-05-25T22:04:19.506Z,5.03
2019-05-25T22:06:52.076Z,5.12
2019-05-25T22:09:24.254Z,5.80
2019-05-25T22:11:56.532Z,5.62
2019-05-25T22:14:29.932Z,5.53
2019-05-25T22:17:02.594Z,5.80
2019-05-25T22:19:34.815Z,4.95
2019-05-25T22:22:07.476Z,5.25
2019-05-25T22:24:40.515Z,4.83
2019-05-25T22:27:12.750Z,4.95
2019-05-25T22:29:44.996Z,5.72
2019-05-25T22:32:18.305Z,4.80
2019-05-25T22:34:52.766Z,5.00
2019-05-25T22:37:25.044Z,4.85
2019-05-25T22:39:57.185Z,5.12
2019-05-25T22:42:29.681Z,4.87
2019-05-25T22:45:01.919Z,5.42
2019-05-25T22:47:34.702Z,5.33
2019-05-25T22:50:07.239Z,5.10
2019-05-25T22:52:39.498Z,4.80
2019-05-25T22:55:12.228Z,5.00
2019-05-25T22:57:45.494Z,5.20
2019-05-25T23:00:19.648Z,5.40
2019-05-25T23:02:51.801Z,5.50
2019-05-25T23:05:24.108Z,5.25
2019-05-25T23:07:56.839Z,5.47
2019-05-25T23:10:29.178Z,5.37
2019-05-25T23:13:01.445Z,5.15
2019-05-25T23:15:34.049Z,4.87
2019-05-25T23:18:06.672Z,6.05
2019-05-25T23:20:38.973Z,5.33
2019-05-25T23:23:13.090Z,5.58
2019-05-25T23:25:45.724Z,5.33
2019-05-25T23:28:18.006Z,5.55
2019-05-25T23:30:50.220Z,5.70
2019-05-25T23:33:22.451Z,5.60
2019-05-25T23:35:54.596Z,5.63
2019-05-25T23:38:26.822Z,5.70
2019-05-25T23:40:59.439Z,5.92
2019-05-25T23:43:31.940Z,5.35
2019-05-25T23:46:04.188Z,5.90
2019-05-25T23:48:36.489Z,5.17
2019-05-25T23:51:08.683Z,5.67
2019-05-25T23:53:40.848Z,5.20
2019-05-25T23:56:13.385Z,5.45
2019-05-25T23:58:45.611Z,5.67
